This is the latest recevied weather packets stored in our database for station/object DO1TNP-13. If no packets are shown the sender has not sent any weather packets the latest 10 day(s).
| Time | Temp. | Humidity | Pressure | Rain* | Wind** | Luminosity | Snow |
|---|---|---|---|---|---|---|---|
| 1777492787 | 12.22° C | 78% | 626 hPa | - | - | - | - |
| 1777490982 | 12.78° C | 75% | 627 hPa | - | - | - | - |
| 1777489176 | 12.78° C | 71% | 627 hPa | - | - | - | - |
| 1777487371 | 13.33° C | 64% | 628 hPa | - | - | - | - |
| 1777485566 | 13.89° C | 58% | 628 hPa | - | - | - | - |
| 1777483761 | 14.44° C | 53% | 629 hPa | - | - | - | - |
| 1777481956 | 15° C | 49% | 630 hPa | - | - | - | - |
| 1777480151 | 15.56° C | 45% | 630 hPa | - | - | - | - |
| 1777478345 | 16.11° C | 45% | 630 hPa | - | - | - | - |
| 1777476540 | 16.67° C | 43% | 631 hPa | - | - | - | - |
| 1777474735 | 17.22° C | 43% | 632 hPa | - | - | - | - |
| 1777472929 | 16.67° C | 43% | 631 hPa | - | - | - | - |
| 1777471124 | 16.67° C | 42% | 631 hPa | - | - | - | - |
| 1777469319 | 17.22° C | 41% | 631 hPa | - | - | - | - |
| 1777467514 | 17.78° C | 42% | 632 hPa | - | - | - | - |
| 1777465709 | 17.22° C | 43% | 632 hPa | - | - | - | - |
| 1777463903 | 17.22° C | 44% | 632 hPa | - | - | - | - |
| 1777462099 | 16.67° C | 44% | 631 hPa | - | - | - | - |
| 1777460293 | 16.67° C | 46% | 631 hPa | - | - | - | - |
| 1777458488 | 16.11° C | 46% | 631 hPa | - | - | - | - |
| 1777456683 | 16.11° C | 51% | 630 hPa | - | - | - | - |
| 1777454878 | 15.56° C | 52% | 630 hPa | - | - | - | - |
| 1777453072 | 14.44° C | 62% | 629 hPa | - | - | - | - |
| 1777451266 | 13.89° C | 84% | 629 hPa | - | - | - | - |
| 1777449461 | 12.78° C | 91% | 627 hPa | - | - | - | - |
* Rain since midnight (hover to see other rain measurements)
** Current wind speed in m/s (hover to see current wind gust speed)